sensor_id;sensor_type;location;lat;lon;timestamp;P1;durP1;ratioP1;P2;durP2;ratioP2
84270;SDS011;74614;50.032;19.566;2024-01-30T00:00:26;84;;;49;;
84270;SDS011;74614;50.032;19.566;2024-01-30T00:02:26;85;;;52;;
84270;SDS011;74614;50.032;19.566;2024-01-30T00:04:25;83;;;47;;
84270;SDS011;74614;50.032;19.566;2024-01-30T00:06:28;81;;;48;;
84270;SDS011;74614;50.032;19.566;2024-01-30T00:08:23;77;;;47;;
84270;SDS011;74614;50.032;19.566;2024-01-30T00:10:23;70;;;45;;
84270;SDS011;74614;50.032;19.566;2024-01-30T00:12:25;75;;;46;;
84270;SDS011;74614;50.032;19.566;2024-01-30T00:14:23;76;;;46;;
84270;SDS011;74614;50.032;19.566;2024-01-30T00:16:28;73;;;44;;
84270;SDS011;74614;50.032;19.566;2024-01-30T00:18:24;69;;;43;;
84270;SDS011;74614;50.032;19.566;2024-01-30T00:20:24;69;;;43;;
84270;SDS011;74614;50.032;19.566;2024-01-30T00:22:28;69;;;43;;
84270;SDS011;74614;50.032;19.566;2024-01-30T00:24:24;69;;;43;;
84270;SDS011;74614;50.032;19.566;2024-01-30T00:26:32;69;;;43;;
84270;SDS011;74614;50.032;19.566;2024-01-30T00:28:27;69;;;43;;
84270;SDS011;74614;50.032;19.566;2024-01-30T00:30:28;69;;;43;;
84270;SDS011;74614;50.032;19.566;2024-01-30T00:32:24;73;;;46;;
84270;SDS011;74614;50.032;19.566;2024-01-30T00:34:24;71;;;44;;
84270;SDS011;74614;50.032;19.566;2024-01-30T00:36:23;71;;;44;;
84270;SDS011;74614;50.032;19.566;2024-01-30T00:38:24;73;;;47;;
84270;SDS011;74614;50.032;19.566;2024-01-30T00:40:25;75;;;46;;
84270;SDS011;74614;50.032;19.566;2024-01-30T00:42:23;76;;;46;;
84270;SDS011;74614;50.032;19.566;2024-01-30T00:44:23;72;;;46;;
84270;SDS011;74614;50.032;19.566;2024-01-30T00:46:24;72;;;45;;
84270;SDS011;74614;50.032;19.566;2024-01-30T00:48:27;76;;;46;;
84270;SDS011;74614;50.032;19.566;2024-01-30T00:50:25;77;;;49;;
84270;SDS011;74614;50.032;19.566;2024-01-30T00:52:24;78;;;48;;
84270;SDS011;74614;50.032;19.566;2024-01-30T00:54:26;80;;;47;;
84270;SDS011;74614;50.032;19.566;2024-01-30T00:56:23;76;;;47;;
84270;SDS011;74614;50.032;19.566;2024-01-30T00:58:23;76;;;46;;
84270;SDS011;74614;50.032;19.566;2024-01-30T01:00:32;76;;;47;;
84270;SDS011;74614;50.032;19.566;2024-01-30T01:03:23;70;;;42;;
84270;SDS011;74614;50.032;19.566;2024-01-30T01:05:29;70;;;43;;
84270;SDS011;74614;50.032;19.566;2024-01-30T01:07:26;72;;;42;;
84270;SDS011;74614;50.032;19.566;2024-01-30T01:09:32;74;;;44;;
84270;SDS011;74614;50.032;19.566;2024-01-30T01:11:23;72;;;42;;
84270;SDS011;74614;50.032;19.566;2024-01-30T01:13:27;76;;;45;;
84270;SDS011;74614;50.032;19.566;2024-01-30T01:15:22;81;;;47;;
84270;SDS011;74614;50.032;19.566;2024-01-30T01:17:29;76;;;46;;
84270;SDS011;74614;50.032;19.566;2024-01-30T01:19:29;74;;;45;;
84270;SDS011;74614;50.032;19.566;2024-01-30T01:21:28;73;;;44;;
84270;SDS011;74614;50.032;19.566;2024-01-30T01:23:24;79;;;45;;
84270;SDS011;74614;50.032;19.566;2024-01-30T01:25:29;80;;;47;;
84270;SDS011;74614;50.032;19.566;2024-01-30T01:27:23;77;;;46;;
84270;SDS011;74614;50.032;19.566;2024-01-30T01:29:33;79;;;46;;
84270;SDS011;74614;50.032;19.566;2024-01-30T01:32:24;77;;;44;;
84270;SDS011;74614;50.032;19.566;2024-01-30T01:34:27;76;;;42;;
84270;SDS011;74614;50.032;19.566;2024-01-30T01:36:28;71;;;43;;
84270;SDS011;74614;50.032;19.566;2024-01-30T01:38:24;72;;;41;;
84270;SDS011;74614;50.032;19.566;2024-01-30T01:40:23;75;;;43;;
84270;SDS011;74614;50.032;19.566;2024-01-30T01:42:23;76;;;44;;
84270;SDS011;74614;50.032;19.566;2024-01-30T01:44:24;75;;;44;;
84270;SDS011;74614;50.032;19.566;2024-01-30T01:46:26;76;;;43;;
84270;SDS011;74614;50.032;19.566;2024-01-30T01:48:24;71;;;41;;
84270;SDS011;74614;50.032;19.566;2024-01-30T01:50:23;71;;;42;;
84270;SDS011;74614;50.032;19.566;2024-01-30T01:52:27;67;;;37;;
84270;SDS011;74614;50.032;19.566;2024-01-30T01:54:24;66;;;40;;
84270;SDS011;74614;50.032;19.566;2024-01-30T01:56:23;63;;;37;;
84270;SDS011;74614;50.032;19.566;2024-01-30T01:58:25;60;;;37;;
84270;SDS011;74614;50.032;19.566;2024-01-30T02:00:24;62;;;37;;
84270;SDS011;74614;50.032;19.566;2024-01-30T02:02:25;62;;;37;;
84270;SDS011;74614;50.032;19.566;2024-01-30T02:04:26;62;;;37;;
84270;SDS011;74614;50.032;19.566;2024-01-30T02:06:24;62;;;37;;
84270;SDS011;74614;50.032;19.566;2024-01-30T02:08:28;62;;;37;;
84270;SDS011;74614;50.032;19.566;2024-01-30T02:10:25;62;;;37;;
84270;SDS011;74614;50.032;19.566;2024-01-30T02:12:25;62;;;37;;
84270;SDS011;74614;50.032;19.566;2024-01-30T02:14:24;62;;;37;;
84270;SDS011;74614;50.032;19.566;2024-01-30T02:16:30;62;;;37;;
84270;SDS011;74614;50.032;19.566;2024-01-30T02:18:23;62;;;37;;
84270;SDS011;74614;50.032;19.566;2024-01-30T02:20:24;62;;;37;;
84270;SDS011;74614;50.032;19.566;2024-01-30T02:22:23;58;;;33;;
84270;SDS011;74614;50.032;19.566;2024-01-30T02:24:23;61;;;37;;
84270;SDS011;74614;50.032;19.566;2024-01-30T02:26:22;54;;;33;;
84270;SDS011;74614;50.032;19.566;2024-01-30T02:28:32;58;;;36;;
84270;SDS011;74614;50.032;19.566;2024-01-30T02:30:23;57;;;36;;
84270;SDS011;74614;50.032;19.566;2024-01-30T02:32:23;60;;;37;;
84270;SDS011;74614;50.032;19.566;2024-01-30T02:34:25;61;;;36;;
84270;SDS011;74614;50.032;19.566;2024-01-30T02:36:23;58;;;35;;
84270;SDS011;74614;50.032;19.566;2024-01-30T02:38:23;59;;;36;;
84270;SDS011;74614;50.032;19.566;2024-01-30T02:40:23;59;;;36;;
84270;SDS011;74614;50.032;19.566;2024-01-30T02:42:22;59;;;35;;
84270;SDS011;74614;50.032;19.566;2024-01-30T02:44:24;57;;;34;;
84270;SDS011;74614;50.032;19.566;2024-01-30T02:46:23;59;;;35;;
84270;SDS011;74614;50.032;19.566;2024-01-30T02:48:24;58;;;37;;
84270;SDS011;74614;50.032;19.566;2024-01-30T02:50:23;60;;;35;;
84270;SDS011;74614;50.032;19.566;2024-01-30T02:52:24;62;;;37;;
84270;SDS011;74614;50.032;19.566;2024-01-30T02:54:23;58;;;34;;
84270;SDS011;74614;50.032;19.566;2024-01-30T02:56:23;57;;;35;;
84270;SDS011;74614;50.032;19.566;2024-01-30T02:58:26;57;;;36;;
84270;SDS011;74614;50.032;19.566;2024-01-30T03:00:24;55;;;34;;
84270;SDS011;74614;50.032;19.566;2024-01-30T03:02:24;52;;;32;;
84270;SDS011;74614;50.032;19.566;2024-01-30T03:04:24;55;;;35;;
84270;SDS011;74614;50.032;19.566;2024-01-30T03:06:27;56;;;34;;
84270;SDS011;74614;50.032;19.566;2024-01-30T03:08:23;54;;;33;;
84270;SDS011;74614;50.032;19.566;2024-01-30T03:10:24;57;;;35;;
84270;SDS011;74614;50.032;19.566;2024-01-30T03:12:24;58;;;35;;
84270;SDS011;74614;50.032;19.566;2024-01-30T03:14:24;59;;;35;;
84270;SDS011;74614;50.032;19.566;2024-01-30T03:16:23;54;;;34;;
84270;SDS011;74614;50.032;19.566;2024-01-30T03:18:26;55;;;34;;
84270;SDS011;74614;50.032;19.566;2024-01-30T03:20:23;55;;;35;;
84270;SDS011;74614;50.032;19.566;2024-01-30T03:22:25;56;;;35;;
84270;SDS011;74614;50.032;19.566;2024-01-30T03:24:23;53;;;33;;
84270;SDS011;74614;50.032;19.566;2024-01-30T03:26:23;53;;;35;;
84270;SDS011;74614;50.032;19.566;2024-01-30T03:28:22;57;;;35;;
84270;SDS011;74614;50.032;19.566;2024-01-30T03:30:24;56;;;36;;
84270;SDS011;74614;50.032;19.566;2024-01-30T03:32:22;55;;;34;;
84270;SDS011;74614;50.032;19.566;2024-01-30T03:34:22;54;;;31;;
84270;SDS011;74614;50.032;19.566;2024-01-30T03:36:27;55;;;35;;
84270;SDS011;74614;50.032;19.566;2024-01-30T03:38:24;57;;;34;;
84270;SDS011;74614;50.032;19.566;2024-01-30T03:40:24;59;;;33;;
84270;SDS011;74614;50.032;19.566;2024-01-30T03:42:25;59;;;36;;
84270;SDS011;74614;50.032;19.566;2024-01-30T03:44:24;59;;;36;;
84270;SDS011;74614;50.032;19.566;2024-01-30T03:46:25;62;;;36;;
84270;SDS011;74614;50.032;19.566;2024-01-30T03:48:23;59;;;35;;
84270;SDS011;74614;50.032;19.566;2024-01-30T03:50:25;61;;;36;;
84270;SDS011;74614;50.032;19.566;2024-01-30T03:52:23;54;;;34;;
84270;SDS011;74614;50.032;19.566;2024-01-30T03:54:24;61;;;36;;
84270;SDS011;74614;50.032;19.566;2024-01-30T03:56:23;58;;;34;;
84270;SDS011;74614;50.032;19.566;2024-01-30T03:58:23;59;;;34;;
84270;SDS011;74614;50.032;19.566;2024-01-30T04:00:23;53;;;33;;
84270;SDS011;74614;50.032;19.566;2024-01-30T04:02:23;55;;;34;;
84270;SDS011;74614;50.032;19.566;2024-01-30T04:04:28;53;;;34;;
84270;SDS011;74614;50.032;19.566;2024-01-30T04:06:24;56;;;33;;
84270;SDS011;74614;50.032;19.566;2024-01-30T04:08:27;54;;;35;;
84270;SDS011;74614;50.032;19.566;2024-01-30T04:10:23;54;;;34;;
84270;SDS011;74614;50.032;19.566;2024-01-30T04:12:23;56;;;33;;
84270;SDS011;74614;50.032;19.566;2024-01-30T04:14:23;53;;;31;;
84270;SDS011;74614;50.032;19.566;2024-01-30T04:16:23;54;;;33;;
84270;SDS011;74614;50.032;19.566;2024-01-30T04:18:23;51;;;30;;
84270;SDS011;74614;50.032;19.566;2024-01-30T04:20:25;52;;;32;;
84270;SDS011;74614;50.032;19.566;2024-01-30T04:22:28;45;;;28;;
84270;SDS011;74614;50.032;19.566;2024-01-30T04:24:24;45;;;27;;
84270;SDS011;74614;50.032;19.566;2024-01-30T04:26:34;46;;;29;;
84270;SDS011;74614;50.032;19.566;2024-01-30T04:29:29;44;;;29;;
84270;SDS011;74614;50.032;19.566;2024-01-30T04:31:27;41;;;27;;
84270;SDS011;74614;50.032;19.566;2024-01-30T04:33:33;49;;;30;;
84270;SDS011;74614;50.032;19.566;2024-01-30T04:35:28;48;;;31;;
84270;SDS011;74614;50.032;19.566;2024-01-30T04:37:29;44;;;29;;
84270;SDS011;74614;50.032;19.566;2024-01-30T04:39:24;43;;;28;;
84270;SDS011;74614;50.032;19.566;2024-01-30T04:41:35;46;;;29;;
84270;SDS011;74614;50.032;19.566;2024-01-30T04:44:25;48;;;29;;
84270;SDS011;74614;50.032;19.566;2024-01-30T04:46:26;50;;;29;;
84270;SDS011;74614;50.032;19.566;2024-01-30T04:48:24;44;;;29;;
84270;SDS011;74614;50.032;19.566;2024-01-30T04:50:23;48;;;31;;
84270;SDS011;74614;50.032;19.566;2024-01-30T04:52:22;51;;;29;;
84270;SDS011;74614;50.032;19.566;2024-01-30T04:54:26;48;;;30;;
84270;SDS011;74614;50.032;19.566;2024-01-30T04:56:23;49;;;30;;
84270;SDS011;74614;50.032;19.566;2024-01-30T04:58:23;43;;;27;;
84270;SDS011;74614;50.032;19.566;2024-01-30T05:00:27;44;;;29;;
84270;SDS011;74614;50.032;19.566;2024-01-30T05:02:27;41;;;25;;
84270;SDS011;74614;50.032;19.566;2024-01-30T05:04:23;45;;;29;;
84270;SDS011;74614;50.032;19.566;2024-01-30T05:06:24;43;;;27;;
84270;SDS011;74614;50.032;19.566;2024-01-30T05:08:22;47;;;30;;
84270;SDS011;74614;50.032;19.566;2024-01-30T05:10:23;43;;;27;;
84270;SDS011;74614;50.032;19.566;2024-01-30T05:12:24;46;;;26;;
84270;SDS011;74614;50.032;19.566;2024-01-30T05:14:23;42;;;24;;
84270;SDS011;74614;50.032;19.566;2024-01-30T05:16:23;45;;;28;;
84270;SDS011;74614;50.032;19.566;2024-01-30T05:18:24;39;;;25;;
84270;SDS011;74614;50.032;19.566;2024-01-30T05:20:24;41;;;25;;
84270;SDS011;74614;50.032;19.566;2024-01-30T05:22:24;43;;;27;;
84270;SDS011;74614;50.032;19.566;2024-01-30T05:24:23;45;;;29;;
84270;SDS011;74614;50.032;19.566;2024-01-30T05:26:25;39;;;25;;
84270;SDS011;74614;50.032;19.566;2024-01-30T05:28:23;39;;;24;;
84270;SDS011;74614;50.032;19.566;2024-01-30T05:30:24;39;;;26;;
84270;SDS011;74614;50.032;19.566;2024-01-30T05:32:23;39;;;24;;
84270;SDS011;74614;50.032;19.566;2024-01-30T05:34:22;40;;;25;;
84270;SDS011;74614;50.032;19.566;2024-01-30T05:36:25;38;;;25;;
84270;SDS011;74614;50.032;19.566;2024-01-30T05:38:26;36;;;23;;
84270;SDS011;74614;50.032;19.566;2024-01-30T05:40:25;41;;;25;;
84270;SDS011;74614;50.032;19.566;2024-01-30T05:42:25;45;;;27;;
84270;SDS011;74614;50.032;19.566;2024-01-30T05:44:24;42;;;25;;
84270;SDS011;74614;50.032;19.566;2024-01-30T05:46:26;40;;;25;;
84270;SDS011;74614;50.032;19.566;2024-01-30T05:48:25;43;;;27;;
84270;SDS011;74614;50.032;19.566;2024-01-30T05:50:27;38;;;25;;
84270;SDS011;74614;50.032;19.566;2024-01-30T05:52:26;43;;;27;;
84270;SDS011;74614;50.032;19.566;2024-01-30T05:54:23;41;;;26;;
84270;SDS011;74614;50.032;19.566;2024-01-30T05:56:23;38;;;24;;
84270;SDS011;74614;50.032;19.566;2024-01-30T05:58:24;40;;;24;;
84270;SDS011;74614;50.032;19.566;2024-01-30T06:00:24;41;;;25;;
84270;SDS011;74614;50.032;19.566;2024-01-30T06:02:23;43;;;26;;
84270;SDS011;74614;50.032;19.566;2024-01-30T06:04:35;44;;;27;;
84270;SDS011;74614;50.032;19.566;2024-01-30T06:07:28;55;;;29;;
84270;SDS011;74614;50.032;19.566;2024-01-30T06:09:28;52;;;29;;
84270;SDS011;74614;50.032;19.566;2024-01-30T06:11:24;49;;;27;;
84270;SDS011;74614;50.032;19.566;2024-01-30T06:13:28;55;;;32;;
84270;SDS011;74614;50.032;19.566;2024-01-30T06:15:25;72;;;39;;
84270;SDS011;74614;50.032;19.566;2024-01-30T06:17:27;64;;;34;;
84270;SDS011;74614;50.032;19.566;2024-01-30T06:19:22;59;;;34;;
84270;SDS011;74614;50.032;19.566;2024-01-30T06:21:25;57;;;32;;
84270;SDS011;74614;50.032;19.566;2024-01-30T06:23:23;60;;;35;;
84270;SDS011;74614;50.032;19.566;2024-01-30T06:25:26;58;;;34;;
84270;SDS011;74614;50.032;19.566;2024-01-30T06:27:25;66;;;39;;
84270;SDS011;74614;50.032;19.566;2024-01-30T06:29:30;64;;;37;;
84270;SDS011;74614;50.032;19.566;2024-01-30T06:31:27;66;;;39;;
84270;SDS011;74614;50.032;19.566;2024-01-30T06:33:31;67;;;38;;
84270;SDS011;74614;50.032;19.566;2024-01-30T06:35:26;65;;;37;;
84270;SDS011;74614;50.032;19.566;2024-01-30T06:37:28;67;;;39;;
84270;SDS011;74614;50.032;19.566;2024-01-30T06:39:23;67;;;41;;
84270;SDS011;74614;50.032;19.566;2024-01-30T06:41:27;69;;;40;;
84270;SDS011;74614;50.032;19.566;2024-01-30T06:43:24;63;;;38;;
84270;SDS011;74614;50.032;19.566;2024-01-30T06:45:28;49;;;30;;
84270;SDS011;74614;50.032;19.566;2024-01-30T06:47:24;61;;;33;;
84270;SDS011;74614;50.032;19.566;2024-01-30T06:49:32;61;;;33;;
84270;SDS011;74614;50.032;19.566;2024-01-30T06:51:23;61;;;33;;
84270;SDS011;74614;50.032;19.566;2024-01-30T06:53:30;61;;;33;;
84270;SDS011;74614;50.032;19.566;2024-01-30T06:55:26;61;;;33;;
84270;SDS011;74614;50.032;19.566;2024-01-30T06:57:33;61;;;33;;
84270;SDS011;74614;50.032;19.566;2024-01-30T07:00:26;61;;;33;;
84270;SDS011;74614;50.032;19.566;2024-01-30T07:02:24;61;;;33;;
84270;SDS011;74614;50.032;19.566;2024-01-30T07:04:25;61;;;33;;
84270;SDS011;74614;50.032;19.566;2024-01-30T07:06:28;61;;;33;;
84270;SDS011;74614;50.032;19.566;2024-01-30T07:08:30;61;;;33;;
84270;SDS011;74614;50.032;19.566;2024-01-30T07:10:25;61;;;33;;
84270;SDS011;74614;50.032;19.566;2024-01-30T07:12:23;61;;;33;;
84270;SDS011;74614;50.032;19.566;2024-01-30T07:14:27;62;;;37;;
84270;SDS011;74614;50.032;19.566;2024-01-30T07:16:24;63;;;41;;
84270;SDS011;74614;50.032;19.566;2024-01-30T07:18:25;59;;;39;;
84270;SDS011;74614;50.032;19.566;2024-01-30T07:20:26;66;;;41;;
84270;SDS011;74614;50.032;19.566;2024-01-30T07:22:26;65;;;41;;
84270;SDS011;74614;50.032;19.566;2024-01-30T07:24:23;66;;;41;;
84270;SDS011;74614;50.032;19.566;2024-01-30T07:26:36;68;;;43;;
84270;SDS011;74614;50.032;19.566;2024-01-30T07:29:26;69;;;46;;
84270;SDS011;74614;50.032;19.566;2024-01-30T07:31:19;65;;;42;;
84270;SDS011;74614;50.032;19.566;2024-01-30T07:33:25;65;;;41;;
84270;SDS011;74614;50.032;19.566;2024-01-30T07:35:19;63;;;39;;
84270;SDS011;74614;50.032;19.566;2024-01-30T07:37:24;57;;;38;;
84270;SDS011;74614;50.032;19.566;2024-01-30T07:39:18;58;;;40;;
84270;SDS011;74614;50.032;19.566;2024-01-30T07:41:24;67;;;44;;
84270;SDS011;74614;50.032;19.566;2024-01-30T07:43:19;65;;;39;;
84270;SDS011;74614;50.032;19.566;2024-01-30T07:45:23;61;;;40;;
84270;SDS011;74614;50.032;19.566;2024-01-30T07:47:20;63;;;41;;
84270;SDS011;74614;50.032;19.566;2024-01-30T07:49:26;61;;;39;;
84270;SDS011;74614;50.032;19.566;2024-01-30T07:52:24;62;;;41;;
84270;SDS011;74614;50.032;19.566;2024-01-30T07:54:23;63;;;42;;
84270;SDS011;74614;50.032;19.566;2024-01-30T07:56:24;59;;;39;;
84270;SDS011;74614;50.032;19.566;2024-01-30T07:58:23;60;;;40;;
84270;SDS011;74614;50.032;19.566;2024-01-30T08:00:23;57;;;40;;
84270;SDS011;74614;50.032;19.566;2024-01-30T08:02:25;48;;;32;;
84270;SDS011;74614;50.032;19.566;2024-01-30T08:04:23;45;;;31;;
84270;SDS011;74614;50.032;19.566;2024-01-30T08:06:25;45;;;31;;
84270;SDS011;74614;50.032;19.566;2024-01-30T08:08:23;45;;;31;;
84270;SDS011;74614;50.032;19.566;2024-01-30T08:10:23;45;;;31;;
84270;SDS011;74614;50.032;19.566;2024-01-30T08:12:22;45;;;31;;
84270;SDS011;74614;50.032;19.566;2024-01-30T08:14:24;45;;;31;;
84270;SDS011;74614;50.032;19.566;2024-01-30T08:16:23;45;;;31;;
84270;SDS011;74614;50.032;19.566;2024-01-30T08:18:28;45;;;31;;
84270;SDS011;74614;50.032;19.566;2024-01-30T08:20:23;45;;;31;;
84270;SDS011;74614;50.032;19.566;2024-01-30T08:22:23;45;;;31;;
84270;SDS011;74614;50.032;19.566;2024-01-30T08:24:28;45;;;31;;
84270;SDS011;74614;50.032;19.566;2024-01-30T08:26:23;45;;;31;;
84270;SDS011;74614;50.032;19.566;2024-01-30T08:28:22;45;;;31;;
84270;SDS011;74614;50.032;19.566;2024-01-30T08:30:25;55;;;38;;
84270;SDS011;74614;50.032;19.566;2024-01-30T08:32:26;58;;;42;;
84270;SDS011;74614;50.032;19.566;2024-01-30T08:34:25;59;;;43;;
84270;SDS011;74614;50.032;19.566;2024-01-30T08:36:22;61;;;45;;
84270;SDS011;74614;50.032;19.566;2024-01-30T08:38:24;57;;;42;;
84270;SDS011;74614;50.032;19.566;2024-01-30T08:40:25;64;;;46;;
84270;SDS011;74614;50.032;19.566;2024-01-30T08:42:27;58;;;44;;
84270;SDS011;74614;50.032;19.566;2024-01-30T08:44:23;59;;;43;;
84270;SDS011;74614;50.032;19.566;2024-01-30T08:46:24;53;;;38;;
84270;SDS011;74614;50.032;19.566;2024-01-30T08:48:27;51;;;36;;
84270;SDS011;74614;50.032;19.566;2024-01-30T08:50:24;53;;;39;;
84270;SDS011;74614;50.032;19.566;2024-01-30T08:52:25;55;;;39;;
84270;SDS011;74614;50.032;19.566;2024-01-30T08:54:25;56;;;40;;
84270;SDS011;74614;50.032;19.566;2024-01-30T08:56:24;54;;;39;;
84270;SDS011;74614;50.032;19.566;2024-01-30T08:58:25;52;;;35;;
84270;SDS011;74614;50.032;19.566;2024-01-30T09:00:26;54;;;37;;
84270;SDS011;74614;50.032;19.566;2024-01-30T09:02:24;53;;;39;;
84270;SDS011;74614;50.032;19.566;2024-01-30T09:04:26;55;;;38;;
84270;SDS011;74614;50.032;19.566;2024-01-30T09:06:23;68;;;43;;
84270;SDS011;74614;50.032;19.566;2024-01-30T09:08:23;83;;;47;;
84270;SDS011;74614;50.032;19.566;2024-01-30T09:10:24;83;;;48;;
84270;SDS011;74614;50.032;19.566;2024-01-30T09:12:24;78;;;45;;
84270;SDS011;74614;50.032;19.566;2024-01-30T09:14:27;71;;;43;;
84270;SDS011;74614;50.032;19.566;2024-01-30T09:16:26;63;;;39;;
84270;SDS011;74614;50.032;19.566;2024-01-30T09:18:26;45;;;32;;
84270;SDS011;74614;50.032;19.566;2024-01-30T09:20:29;47;;;29;;
84270;SDS011;74614;50.032;19.566;2024-01-30T09:22:22;40;;;28;;
84270;SDS011;74614;50.032;19.566;2024-01-30T09:24:25;43;;;28;;
84270;SDS011;74614;50.032;19.566;2024-01-30T09:26:24;48;;;29;;
84270;SDS011;74614;50.032;19.566;2024-01-30T09:28:24;49;;;32;;
84270;SDS011;74614;50.032;19.566;2024-01-30T09:30:26;68;;;41;;
84270;SDS011;74614;50.032;19.566;2024-01-30T09:32:26;63;;;38;;
84270;SDS011;74614;50.032;19.566;2024-01-30T09:34:27;43;;;29;;
84270;SDS011;74614;50.032;19.566;2024-01-30T09:36:24;39;;;26;;
84270;SDS011;74614;50.032;19.566;2024-01-30T09:38:25;38;;;25;;
84270;SDS011;74614;50.032;19.566;2024-01-30T09:40:25;31;;;22;;
84270;SDS011;74614;50.032;19.566;2024-01-30T09:42:28;31;;;20;;
84270;SDS011;74614;50.032;19.566;2024-01-30T09:44:25;23;;;18;;
84270;SDS011;74614;50.032;19.566;2024-01-30T09:46:26;27;;;19;;
84270;SDS011;74614;50.032;19.566;2024-01-30T09:48:23;28;;;17;;
84270;SDS011;74614;50.032;19.566;2024-01-30T09:50:24;27;;;19;;
84270;SDS011;74614;50.032;19.566;2024-01-30T09:52:22;27;;;18;;
84270;SDS011;74614;50.032;19.566;2024-01-30T09:54:23;26;;;17;;
84270;SDS011;74614;50.032;19.566;2024-01-30T09:56:25;24;;;17;;
84270;SDS011;74614;50.032;19.566;2024-01-30T09:58:23;26;;;17;;
84270;SDS011;74614;50.032;19.566;2024-01-30T10:00:33;27;;;18;;
84270;SDS011;74614;50.032;19.566;2024-01-30T10:02:25;29;;;17;;
84270;SDS011;74614;50.032;19.566;2024-01-30T10:04:23;28;;;19;;
84270;SDS011;74614;50.032;19.566;2024-01-30T10:06:26;29;;;18;;
84270;SDS011;74614;50.032;19.566;2024-01-30T10:08:23;29;;;18;;
84270;SDS011;74614;50.032;19.566;2024-01-30T10:10:26;29;;;18;;
84270;SDS011;74614;50.032;19.566;2024-01-30T10:12:25;29;;;18;;
84270;SDS011;74614;50.032;19.566;2024-01-30T10:14:29;29;;;18;;
84270;SDS011;74614;50.032;19.566;2024-01-30T10:16:30;29;;;18;;
84270;SDS011;74614;50.032;19.566;2024-01-30T10:18:29;29;;;18;;
84270;SDS011;74614;50.032;19.566;2024-01-30T10:20:26;31;;;20;;
84270;SDS011;74614;50.032;19.566;2024-01-30T10:22:27;30;;;19;;
84270;SDS011;74614;50.032;19.566;2024-01-30T10:25:26;27;;;19;;
84270;SDS011;74614;50.032;19.566;2024-01-30T10:27:25;26;;;17;;
84270;SDS011;74614;50.032;19.566;2024-01-30T10:29:33;25;;;17;;
84270;SDS011;74614;50.032;19.566;2024-01-30T10:32:19;30;;;19;;
84270;SDS011;74614;50.032;19.566;2024-01-30T10:34:23;24;;;15;;
84270;SDS011;74614;50.032;19.566;2024-01-30T10:36:19;27;;;16;;
84270;SDS011;74614;50.032;19.566;2024-01-30T10:38:22;26;;;16;;
84270;SDS011;74614;50.032;19.566;2024-01-30T10:40:19;24;;;16;;
84270;SDS011;74614;50.032;19.566;2024-01-30T10:42:25;27;;;14;;
84270;SDS011;74614;50.032;19.566;2024-01-30T10:45:25;26;;;16;;
84270;SDS011;74614;50.032;19.566;2024-01-30T10:47:25;22;;;14;;
84270;SDS011;74614;50.032;19.566;2024-01-30T10:49:33;25;;;16;;
84270;SDS011;74614;50.032;19.566;2024-01-30T10:52:24;27;;;17;;
84270;SDS011;74614;50.032;19.566;2024-01-30T10:54:35;24;;;18;;
84270;SDS011;74614;50.032;19.566;2024-01-30T10:57:26;26;;;17;;
84270;SDS011;74614;50.032;19.566;2024-01-30T10:59:24;29;;;19;;
84270;SDS011;74614;50.032;19.566;2024-01-30T11:01:25;25;;;17;;
84270;SDS011;74614;50.032;19.566;2024-01-30T11:03:25;36;;;23;;
84270;SDS011;74614;50.032;19.566;2024-01-30T11:05:27;32;;;21;;
84270;SDS011;74614;50.032;19.566;2024-01-30T11:07:28;29;;;19;;
84270;SDS011;74614;50.032;19.566;2024-01-30T11:09:23;27;;;17;;
84270;SDS011;74614;50.032;19.566;2024-01-30T11:11:23;25;;;17;;
84270;SDS011;74614;50.032;19.566;2024-01-30T11:13:28;25;;;17;;
84270;SDS011;74614;50.032;19.566;2024-01-30T11:15:25;25;;;17;;
84270;SDS011;74614;50.032;19.566;2024-01-30T11:17:44;19;;;14;;
84270;SDS011;74614;50.032;19.566;2024-01-30T11:20:20;24;;;16;;
84270;SDS011;74614;50.032;19.566;2024-01-30T11:22:23;27;;;17;;
84270;SDS011;74614;50.032;19.566;2024-01-30T11:24:19;27;;;18;;
84270;SDS011;74614;50.032;19.566;2024-01-30T11:26:27;25;;;16;;
84270;SDS011;74614;50.032;19.566;2024-01-30T11:29:24;25;;;16;;
84270;SDS011;74614;50.032;19.566;2024-01-30T11:31:25;25;;;16;;
84270;SDS011;74614;50.032;19.566;2024-01-30T11:33:27;25;;;16;;
84270;SDS011;74614;50.032;19.566;2024-01-30T11:35:25;25;;;16;;
84270;SDS011;74614;50.032;19.566;2024-01-30T11:37:26;25;;;16;;
84270;SDS011;74614;50.032;19.566;2024-01-30T11:39:26;25;;;16;;
84270;SDS011;74614;50.032;19.566;2024-01-30T11:41:28;25;;;16;;
84270;SDS011;74614;50.032;19.566;2024-01-30T11:43:28;25;;;16;;
84270;SDS011;74614;50.032;19.566;2024-01-30T11:45:26;25;;;16;;
84270;SDS011;74614;50.032;19.566;2024-01-30T11:47:22;25;;;16;;
84270;SDS011;74614;50.032;19.566;2024-01-30T11:49:23;25;;;16;;
84270;SDS011;74614;50.032;19.566;2024-01-30T11:51:24;25;;;16;;
84270;SDS011;74614;50.032;19.566;2024-01-30T11:53:23;25;;;16;;
84270;SDS011;74614;50.032;19.566;2024-01-30T11:55:29;25;;;16;;
84270;SDS011;74614;50.032;19.566;2024-01-30T11:57:26;27;;;19;;
84270;SDS011;74614;50.032;19.566;2024-01-30T11:59:23;27;;;19;;
84270;SDS011;74614;50.032;19.566;2024-01-30T12:01:24;28;;;18;;
84270;SDS011;74614;50.032;19.566;2024-01-30T12:03:24;24;;;16;;
84270;SDS011;74614;50.032;19.566;2024-01-30T12:05:25;27;;;19;;
84270;SDS011;74614;50.032;19.566;2024-01-30T12:07:23;28;;;18;;
84270;SDS011;74614;50.032;19.566;2024-01-30T12:09:26;0;;;0;;
84270;SDS011;74614;50.032;19.566;2024-01-30T12:11:26;28;;;18;;
84270;SDS011;74614;50.032;19.566;2024-01-30T12:13:25;29;;;20;;
84270;SDS011;74614;50.032;19.566;2024-01-30T12:15:26;28;;;18;;
84270;SDS011;74614;50.032;19.566;2024-01-30T12:17:23;29;;;19;;
84270;SDS011;74614;50.032;19.566;2024-01-30T12:19:25;31;;;20;;
84270;SDS011;74614;50.032;19.566;2024-01-30T12:21:28;29;;;19;;
84270;SDS011;74614;50.032;19.566;2024-01-30T12:23:43;0;;;0;;
84270;SDS011;74614;50.032;19.566;2024-01-30T12:26:30;31;;;20;;
84270;SDS011;74614;50.032;19.566;2024-01-30T12:28:26;29;;;20;;
84270;SDS011;74614;50.032;19.566;2024-01-30T12:30:28;28;;;19;;
84270;SDS011;74614;50.032;19.566;2024-01-30T12:32:25;29;;;20;;
84270;SDS011;74614;50.032;19.566;2024-01-30T12:34:29;28;;;19;;
84270;SDS011;74614;50.032;19.566;2024-01-30T12:36:25;29;;;21;;
84270;SDS011;74614;50.032;19.566;2024-01-30T12:38:33;31;;;21;;
84270;SDS011;74614;50.032;19.566;2024-01-30T12:40:23;28;;;20;;
84270;SDS011;74614;50.032;19.566;2024-01-30T12:42:28;31;;;22;;
84270;SDS011;74614;50.032;19.566;2024-01-30T12:44:22;30;;;20;;
84270;SDS011;74614;50.032;19.566;2024-01-30T12:46:29;31;;;20;;
84270;SDS011;74614;50.032;19.566;2024-01-30T12:48:24;30;;;21;;
84270;SDS011;74614;50.032;19.566;2024-01-30T12:50:30;31;;;22;;
84270;SDS011;74614;50.032;19.566;2024-01-30T12:52:24;30;;;20;;